Nissyomaru — JD2650 — position and weather

sailwx.info

Track history (hours):
 
Tides and Currents Weather Stations Pressure Air Temp Water Temp Dewpoint Dewpoint Depression Visibility Wind Speed Wind Dir Waves Ship Positions

Nissyomaru

Last reported at 2014-Jul-27 23:31 UTC. Time now 2014-Jul-28 12:31 UTC.
Position N 34°44' E 139°39'.

Length 75 m; draft 4 m.

Type: Cargo ship. MMSI: 431000572.

Date/timePositionNaut miles runAvg speedWind from/ knotsBaromVisibWave heightAir tempDewpointWater temp
2014-Jul-27 23:31N 34°44' E 139°39'1611.7
2014-Jul-27 22:10N 34°52' E 139°57'6 9.9
2014-Jul-27 21:33N 34°55' E 140°03'10 9.5
2014-Jul-27 20:33N 35°00' E 140°13'19 9.1
2014-Jul-27 18:30N 35°13' E 140°29'1212.3
2014-Jul-27 17:33N 35°22' E 140°38'1312.5
2014-Jul-27 16:33N 35°32' E 140°47'1812.2
2014-Jul-27 15:06N 35°48' E 140°58'712.8
2014-Jul-27 14:33N 35°55' E 140°60'1312.8
2014-Jul-27 13:33N 36°07' E 141°02'1312.9
2014-Jul-27 12:33N 36°20' E 141°06'  
2014-Jul-20 22:09N 35°54' E 140°59'911.0
2014-Jul-20 21:20N 35°45' E 140°57'810.8
2014-Jul-20 20:33N 35°37' E 140°53'1211.3
2014-Jul-20 19:31N 35°28' E 140°44'1211.6
2014-Jul-20 18:32N 35°19' E 140°36'1211.3
2014-Jul-20 17:28N 35°09' E 140°26'1111.5
2014-Jul-20 16:33N 35°02' E 140°17'1311.7
2014-Jul-20 15:26N 34°55' E 140°03'  
2014-Jul-18 09:09N 34°53' E 138°31'1313.0
2014-Jul-18 08:11N 35°04' E 138°39'  
Track history (hours):
 
Tides and Currents Weather Stations Pressure Air Temp Water Temp Dewpoint Dewpoint Depression Visibility Wind Speed Wind Dir Waves Ship Positions

Nissyomaru

Last reported at 2014-Jul-27 23:31 UTC. Time now 2014-Jul-28 12:31 UTC.
Position N 34°44' E 139°39'.

Length 75 m; draft 4 m.

Type: Cargo ship. MMSI: 431000572.

Date/timePositionNaut miles runAvg speedWind from/ knotsBaromVisibWave heightAir tempDewpointWater temp
2014-Jul-27 23:31N 34°44' E 139°39'1611.7
2014-Jul-27 22:10N 34°52' E 139°57'6 9.9
2014-Jul-27 21:33N 34°55' E 140°03'10 9.5
2014-Jul-27 20:33N 35°00' E 140°13'19 9.1
2014-Jul-27 18:30N 35°13' E 140°29'1212.3
2014-Jul-27 17:33N 35°22' E 140°38'1312.5
2014-Jul-27 16:33N 35°32' E 140°47'1812.2
2014-Jul-27 15:06N 35°48' E 140°58'712.8
2014-Jul-27 14:33N 35°55' E 140°60'1312.8
2014-Jul-27 13:33N 36°07' E 141°02'1312.9
2014-Jul-27 12:33N 36°20' E 141°06'  
2014-Jul-20 22:09N 35°54' E 140°59'911.0
2014-Jul-20 21:20N 35°45' E 140°57'810.8
2014-Jul-20 20:33N 35°37' E 140°53'1211.3
2014-Jul-20 19:31N 35°28' E 140°44'1211.6
2014-Jul-20 18:32N 35°19' E 140°36'1211.3
2014-Jul-20 17:28N 35°09' E 140°26'1111.5
2014-Jul-20 16:33N 35°02' E 140°17'1311.7
2014-Jul-20 15:26N 34°55' E 140°03'  
2014-Jul-18 09:09N 34°53' E 138°31'1313.0
2014-Jul-18 08:11N 35°04' E 138°39'  

Dump ship's entire track history